createdAt,value
2022-09-14T00:02:18.243Z,11.93
2022-09-14T00:05:22.063Z,8.93
2022-09-14T00:08:25.478Z,14.07
2022-09-14T00:11:31.754Z,14.85
2022-09-14T00:14:35.713Z,20.80
2022-09-14T00:17:38.981Z,26.63
2022-09-14T00:20:43.445Z,18.30
2022-09-14T00:23:47.693Z,17.33
2022-09-14T00:26:52.399Z,19.33
2022-09-14T00:29:56.326Z,17.15
2022-09-14T00:32:59.827Z,16.92
2022-09-14T00:36:11.693Z,18.13
2022-09-14T00:39:18.263Z,13.13
2022-09-14T00:42:21.748Z,10.73
2022-09-14T00:45:26.919Z,13.50
2022-09-14T00:48:31.553Z,14.32
2022-09-14T00:51:39.079Z,12.77
2022-09-14T00:54:59.874Z,14.40
2022-09-14T00:58:03.857Z,9.48
2022-09-14T01:01:09.066Z,21.65
2022-09-14T01:04:12.487Z,15.60
2022-09-14T01:07:40.361Z,17.00
2022-09-14T01:11:08.202Z,13.13
2022-09-14T01:14:45.421Z,16.38
2022-09-14T01:18:10.261Z,10.10
2022-09-14T01:21:16.134Z,14.15
2022-09-14T01:24:28.973Z,10.43
2022-09-14T01:27:37.093Z,9.27
2022-09-14T01:30:42.901Z,10.60
2022-09-14T01:34:06.429Z,13.80
2022-09-14T01:37:19.805Z,8.00
2022-09-14T01:40:44.101Z,10.47
2022-09-14T01:43:54.556Z,12.67
2022-09-14T01:47:08.115Z,22.00
2022-09-14T01:50:18.730Z,13.93
2022-09-14T01:53:24.705Z,12.00
2022-09-14T01:56:36.241Z,8.47
2022-09-14T01:59:46.730Z,10.73
2022-09-14T02:02:57.341Z,11.43
2022-09-14T02:06:30.686Z,10.73
2022-09-14T02:09:34.701Z,12.75
2022-09-14T02:12:39.853Z,16.37
2022-09-14T02:15:42.901Z,14.83
2022-09-14T02:18:46.675Z,16.58
2022-09-14T02:21:50.478Z,14.75
2022-09-14T02:24:55.571Z,11.18
2022-09-14T02:27:59.632Z,23.17
2022-09-14T02:31:17.514Z,20.03
2022-09-14T02:34:34.949Z,10.18
2022-09-14T02:37:38.923Z,9.02
2022-09-14T02:41:20.063Z,13.00
2022-09-14T02:44:48.080Z,11.10
2022-09-14T02:48:02.967Z,9.23
2022-09-14T02:51:20.427Z,8.02
2022-09-14T02:54:27.809Z,10.82
2022-09-14T02:57:32.024Z,7.10
2022-09-14T03:00:44.906Z,4.33
2022-09-14T03:03:48.362Z,4.87
2022-09-14T03:06:52.888Z,8.02
2022-09-14T03:09:56.514Z,18.23
2022-09-14T03:13:01.366Z,5.05
2022-09-14T03:16:12.774Z,5.50
2022-09-14T03:19:17.060Z,7.97
2022-09-14T03:22:19.979Z,5.68
2022-09-14T03:25:23.762Z,8.10
2022-09-14T03:28:27.164Z,7.80
2022-09-14T03:31:30.965Z,7.50
2022-09-14T03:34:35.098Z,8.23
2022-09-14T03:37:39.995Z,9.15
2022-09-14T03:40:43.876Z,6.15
2022-09-14T03:43:48.272Z,8.02
2022-09-14T03:46:52.180Z,9.07
2022-09-14T03:49:56.159Z,8.97
2022-09-14T03:53:00.153Z,8.52
2022-09-14T03:56:12.546Z,5.80
2022-09-14T03:59:15.405Z,5.88
2022-09-14T04:02:18.786Z,7.10
2022-09-14T04:05:22.555Z,8.83
2022-09-14T04:08:27.432Z,7.25
2022-09-14T04:11:32.132Z,10.70
2022-09-14T04:14:36.460Z,7.50
2022-09-14T04:17:41.088Z,5.40
2022-09-14T04:20:44.437Z,4.90
2022-09-14T04:27:12.231Z,6.25
2022-09-14T04:30:16.056Z,5.10
2022-09-14T04:33:19.848Z,4.10
2022-09-14T04:36:24.280Z,7.47
2022-09-14T04:39:28.380Z,6.88
2022-09-14T04:42:31.920Z,9.30
2022-09-14T04:45:37.224Z,5.40
2022-09-14T04:48:41.701Z,5.53
2022-09-14T04:51:46.461Z,5.83
2022-09-14T04:54:50.504Z,8.60
2022-09-14T04:57:54.380Z,8.60
2022-09-14T05:01:12.257Z,8.63
2022-09-14T05:04:16.357Z,5.33
2022-09-14T05:07:19.987Z,9.33
2022-09-14T05:10:24.093Z,7.85
2022-09-14T05:13:27.747Z,9.48
2022-09-14T05:16:34.531Z,5.80
2022-09-14T05:19:37.748Z,6.10
2022-09-14T05:22:41.765Z,12.93
2022-09-14T05:25:45.498Z,7.07
2022-09-14T05:29:01.312Z,9.23
2022-09-14T05:32:05.465Z,8.25
2022-09-14T05:35:09.564Z,5.10
2022-09-14T05:38:13.277Z,10.47
2022-09-14T05:41:17.626Z,6.90
2022-09-14T05:44:21.252Z,6.07
2022-09-14T05:47:24.972Z,7.85
2022-09-14T05:50:28.613Z,12.70
2022-09-14T05:53:32.649Z,5.80
2022-09-14T05:56:36.008Z,10.63
2022-09-14T05:59:40.013Z,11.15
2022-09-14T06:02:50.550Z,6.28
2022-09-14T06:05:58.262Z,6.33
2022-09-14T06:09:02.269Z,4.47
2022-09-14T06:12:06.455Z,3.30
2022-09-14T06:15:11.522Z,4.80
2022-09-14T06:18:15.712Z,11.63
2022-09-14T06:21:20.881Z,12.43
2022-09-14T06:24:25.133Z,11.93
2022-09-14T06:27:28.285Z,13.63
2022-09-14T06:30:32.302Z,14.68
2022-09-14T06:33:36.305Z,18.55
2022-09-14T06:36:40.286Z,20.77
2022-09-14T06:39:43.851Z,12.07
2022-09-14T06:42:48.030Z,13.85
2022-09-14T06:46:08.338Z,12.48
2022-09-14T06:49:18.645Z,9.65
2022-09-14T06:52:22.421Z,8.13
2022-09-14T06:55:26.119Z,11.50
2022-09-14T06:58:29.942Z,9.90
2022-09-14T07:01:34.317Z,11.27
2022-09-14T07:04:37.988Z,12.43
2022-09-14T07:07:42.057Z,11.43
2022-09-14T07:10:55.888Z,10.83
2022-09-14T07:14:00.201Z,6.53
2022-09-14T07:17:03.979Z,6.82
2022-09-14T07:20:08.751Z,6.25
2022-09-14T07:23:14.069Z,8.77
2022-09-14T07:26:24.288Z,7.63
2022-09-14T07:29:28.002Z,5.25
2022-09-14T07:32:31.047Z,3.97
2022-09-14T07:35:34.785Z,4.25
2022-09-14T07:38:53.757Z,6.27
2022-09-14T07:41:58.334Z,6.47
2022-09-14T07:45:02.082Z,5.60
2022-09-14T07:48:06.288Z,5.22
2022-09-14T07:51:12.119Z,7.32
2022-09-14T07:54:17.453Z,8.80
2022-09-14T07:57:39.468Z,9.17
2022-09-14T08:00:45.129Z,6.90
2022-09-14T08:03:49.911Z,7.53
2022-09-14T08:06:53.452Z,7.22
2022-09-14T08:09:57.445Z,6.97
2022-09-14T08:13:01.162Z,8.13
2022-09-14T08:16:06.984Z,8.30
2022-09-14T08:19:20.970Z,9.95
2022-09-14T08:22:24.197Z,6.05
2022-09-14T08:25:27.181Z,5.07
2022-09-14T08:28:31.178Z,16.33
2022-09-14T08:31:38.027Z,5.75
2022-09-14T08:34:41.902Z,6.68
2022-09-14T08:37:45.367Z,5.68
2022-09-14T08:40:49.491Z,6.43
2022-09-14T08:43:53.996Z,6.47
2022-09-14T08:47:00.797Z,4.68
2022-09-14T08:50:12.710Z,6.22
2022-09-14T08:53:16.424Z,9.10
2022-09-14T08:56:25.750Z,7.17
2022-09-14T08:59:41.892Z,7.97
2022-09-14T09:03:07.207Z,10.38
2022-09-14T09:06:22.841Z,8.93
2022-09-14T09:09:43.632Z,11.05
2022-09-14T09:12:51.236Z,7.73
2022-09-14T09:15:59.174Z,10.60
2022-09-14T09:19:11.674Z,9.30
2022-09-14T09:22:18.295Z,8.75
2022-09-14T09:25:25.565Z,7.45
2022-09-14T09:28:30.709Z,9.47
2022-09-14T09:31:37.199Z,9.83
2022-09-14T09:35:02.096Z,10.68
2022-09-14T09:38:37.582Z,8.70
2022-09-14T09:41:58.732Z,13.73
2022-09-14T09:45:06.401Z,8.50
2022-09-14T09:48:11.699Z,8.57
2022-09-14T09:51:23.491Z,8.32
2022-09-14T09:54:31.559Z,8.02
2022-09-14T09:57:37.559Z,7.03
2022-09-14T10:00:41.244Z,9.03
2022-09-14T10:03:52.019Z,10.03
2022-09-14T10:06:58.909Z,12.27
2022-09-14T10:10:07.699Z,9.25
2022-09-14T10:13:35.344Z,10.65
2022-09-14T10:16:43.629Z,12.67
2022-09-14T10:19:53.471Z,11.40
2022-09-14T10:23:02.094Z,12.82
2022-09-14T10:26:16.409Z,9.32
2022-09-14T10:29:22.263Z,11.30
2022-09-14T10:32:27.248Z,9.33
2022-09-14T10:35:34.501Z,4.40
2022-09-14T10:39:16.732Z,7.75
2022-09-14T10:42:43.776Z,5.75
2022-09-14T10:45:51.302Z,6.43
2022-09-14T10:49:13.018Z,7.00
2022-09-14T10:52:49.918Z,6.27
2022-09-14T10:55:53.597Z,6.28
2022-09-14T10:59:23.108Z,4.40
2022-09-14T11:02:56.161Z,7.95
2022-09-14T11:06:42.480Z,10.77
2022-09-14T11:09:45.824Z,9.53
2022-09-14T11:13:26.604Z,46.22
2022-09-14T11:16:51.201Z,45.38
2022-09-14T11:20:48.931Z,31.95
2022-09-14T11:24:14.432Z,15.47
2022-09-14T11:28:06.312Z,11.27
2022-09-14T11:31:18.791Z,11.43
2022-09-14T11:34:28.817Z,15.98
2022-09-14T11:38:06.955Z,13.25
2022-09-14T11:41:28.961Z,12.27
2022-09-14T11:44:42.207Z,10.07
2022-09-14T11:47:54.692Z,9.93
2022-09-14T11:51:09.050Z,11.07
2022-09-14T11:54:24.837Z,12.48
2022-09-14T11:57:33.366Z,11.67
2022-09-14T12:00:46.656Z,11.83
2022-09-14T12:04:05.809Z,10.20
2022-09-14T12:07:09.874Z,12.27
2022-09-14T12:10:16.426Z,12.93
2022-09-14T12:13:22.000Z,11.00
2022-09-14T12:16:25.100Z,13.40
2022-09-14T12:19:29.227Z,13.70
2022-09-14T12:22:38.432Z,12.50
2022-09-14T12:26:01.167Z,17.65
2022-09-14T12:29:28.314Z,12.67
2022-09-14T12:32:44.243Z,12.13
2022-09-14T12:35:48.171Z,12.23
2022-09-14T12:38:52.864Z,15.52
2022-09-14T12:41:57.015Z,15.85
2022-09-14T12:45:38.417Z,62.00
2022-09-14T12:48:51.854Z,18.83
2022-09-14T12:51:55.899Z,15.40
2022-09-14T12:55:38.618Z,13.13
2022-09-14T12:59:00.458Z,12.55
2022-09-14T13:02:31.711Z,16.60
2022-09-14T13:05:35.735Z,16.77
2022-09-14T13:08:38.772Z,13.05
2022-09-14T13:11:42.576Z,12.00
2022-09-14T13:14:56.956Z,15.18
2022-09-14T13:18:05.834Z,17.03
2022-09-14T13:21:20.280Z,14.67
2022-09-14T13:24:27.682Z,17.75
2022-09-14T13:27:36.630Z,16.88
2022-09-14T13:30:44.200Z,21.50
2022-09-14T13:33:53.564Z,20.33
2022-09-14T13:36:58.270Z,19.60
2022-09-14T13:40:02.113Z,20.05
2022-09-14T13:43:06.500Z,15.38
2022-09-14T13:46:12.399Z,45.03
2022-09-14T13:49:16.706Z,25.03
2022-09-14T13:52:22.706Z,20.57
2022-09-14T13:55:29.875Z,14.57
2022-09-14T13:58:35.684Z,20.38
2022-09-14T14:01:41.221Z,31.42
2022-09-14T14:04:49.667Z,45.57
2022-09-14T14:07:53.179Z,21.03
2022-09-14T14:10:56.701Z,25.17
2022-09-14T14:14:17.040Z,25.30
2022-09-14T14:17:25.469Z,17.35
2022-09-14T14:20:29.394Z,16.03
2022-09-14T14:23:33.249Z,17.90
2022-09-14T14:26:37.039Z,16.30
2022-09-14T14:29:41.187Z,17.00
2022-09-14T14:32:44.546Z,14.23
2022-09-14T14:35:49.195Z,15.73
2022-09-14T14:38:52.852Z,14.23
2022-09-14T14:41:56.838Z,12.70
2022-09-14T14:45:01.212Z,13.43
2022-09-14T14:48:05.709Z,11.57
2022-09-14T14:51:14.775Z,9.50
2022-09-14T14:54:19.549Z,13.30
2022-09-14T14:57:23.176Z,15.93
2022-09-14T15:00:26.965Z,12.30
2022-09-14T15:03:30.839Z,12.75
2022-09-14T15:06:36.656Z,12.23
2022-09-14T15:09:40.769Z,13.90
2022-09-14T15:12:44.535Z,13.40
2022-09-14T15:15:47.613Z,11.95
2022-09-14T15:18:50.867Z,12.88
2022-09-14T15:21:57.289Z,15.33
2022-09-14T15:25:04.863Z,12.27
2022-09-14T15:28:09.045Z,13.27
2022-09-14T15:31:13.213Z,19.45
2022-09-14T15:34:16.325Z,14.18
2022-09-14T15:37:19.280Z,18.43
2022-09-14T15:40:22.404Z,15.93
2022-09-14T15:43:25.834Z,17.02
2022-09-14T15:46:29.544Z,18.92
2022-09-14T15:49:33.017Z,17.30
2022-09-14T15:52:38.217Z,18.07
2022-09-14T15:55:46.593Z,18.97
2022-09-14T15:58:49.497Z,20.10
2022-09-14T16:01:53.185Z,17.20
2022-09-14T16:04:56.504Z,16.63
2022-09-14T16:08:00.426Z,16.23
2022-09-14T16:11:05.482Z,14.33
2022-09-14T16:14:11.520Z,15.35
2022-09-14T16:17:16.170Z,16.20
2022-09-14T16:20:21.740Z,16.60
2022-09-14T16:23:25.686Z,17.73
2022-09-14T16:26:33.104Z,23.50
2022-09-14T16:29:36.979Z,20.00
2022-09-14T16:32:40.977Z,18.02
2022-09-14T16:35:44.570Z,21.90
2022-09-14T16:38:48.269Z,19.90
2022-09-14T16:41:52.770Z,20.60
2022-09-14T16:44:56.779Z,20.20
2022-09-14T16:48:00.407Z,18.00
2022-09-14T16:51:04.851Z,18.65
2022-09-14T16:54:09.794Z,17.47
2022-09-14T16:57:13.737Z,23.53
2022-09-14T17:00:17.493Z,19.63
2022-09-14T17:03:21.535Z,20.58
2022-09-14T17:06:30.157Z,17.58
2022-09-14T17:09:33.823Z,20.57
2022-09-14T17:12:37.582Z,18.87
2022-09-14T17:15:41.529Z,19.58
2022-09-14T17:18:49.371Z,19.33
2022-09-14T17:21:54.123Z,16.33
2022-09-14T17:24:57.306Z,14.30
2022-09-14T17:28:01.220Z,15.87
2022-09-14T17:31:08.342Z,16.90
2022-09-14T17:34:14.296Z,13.15
2022-09-14T17:37:18.437Z,15.60
2022-09-14T17:40:21.476Z,12.27
2022-09-14T17:43:24.479Z,15.20
2022-09-14T17:46:29.395Z,16.02
2022-09-14T17:49:33.160Z,17.75
2022-09-14T17:52:36.670Z,14.75
2022-09-14T17:55:40.264Z,16.73
2022-09-14T17:58:44.802Z,13.20
2022-09-14T18:01:49.543Z,13.38
2022-09-14T18:04:53.265Z,15.55
2022-09-14T18:07:57.004Z,11.93
2022-09-14T18:11:09.127Z,13.47
2022-09-14T18:14:16.246Z,12.20
2022-09-14T18:17:20.468Z,11.75
2022-09-14T18:20:24.452Z,9.40
2022-09-14T18:23:29.396Z,11.75
2022-09-14T18:26:33.584Z,12.97
2022-09-14T18:29:37.872Z,13.40
2022-09-14T18:32:41.473Z,14.55
2022-09-14T18:35:45.922Z,15.15
2022-09-14T18:38:51.988Z,15.80
2022-09-14T18:41:57.275Z,18.23
2022-09-14T18:45:00.989Z,18.97
2022-09-14T18:48:05.072Z,18.33
2022-09-14T18:51:09.339Z,15.77
2022-09-14T18:54:14.451Z,16.65
2022-09-14T18:57:20.044Z,16.30
2022-09-14T19:00:24.854Z,15.13
2022-09-14T19:03:28.639Z,13.65
2022-09-14T19:06:34.511Z,9.32
2022-09-14T19:09:38.155Z,8.63
2022-09-14T19:12:43.134Z,10.33
2022-09-14T19:15:46.733Z,7.67
2022-09-14T19:18:51.220Z,8.18
2022-09-14T19:21:54.976Z,8.80
2022-09-14T19:24:58.888Z,8.43
2022-09-14T19:28:02.830Z,8.27
2022-09-14T19:31:14.357Z,10.77
2022-09-14T19:34:18.152Z,12.55
2022-09-14T19:37:21.515Z,9.80
2022-09-14T19:40:25.092Z,12.90
2022-09-14T19:43:29.012Z,12.90
2022-09-14T19:46:32.040Z,10.57
2022-09-14T19:49:36.016Z,13.57
2022-09-14T19:52:38.943Z,14.05
2022-09-14T19:55:41.897Z,12.98
2022-09-14T19:58:47.480Z,14.23
2022-09-14T20:01:51.944Z,18.20
2022-09-14T20:04:55.977Z,19.38
2022-09-14T20:07:59.809Z,19.58
2022-09-14T20:11:19.060Z,24.55
2022-09-14T20:14:25.437Z,23.80
2022-09-14T20:17:29.101Z,19.23
2022-09-14T20:20:36.173Z,19.45
2022-09-14T20:23:52.447Z,14.68
2022-09-14T20:27:03.766Z,13.75
2022-09-14T20:30:09.194Z,7.10
2022-09-14T20:33:12.585Z,7.63
2022-09-14T20:36:20.774Z,6.68
2022-09-14T20:39:24.536Z,5.65
2022-09-14T20:42:28.662Z,6.72
2022-09-14T20:45:32.008Z,3.67
2022-09-14T20:48:35.561Z,4.43
2022-09-14T20:51:39.525Z,5.05
2022-09-14T20:54:43.210Z,5.18
2022-09-14T20:57:46.846Z,6.93
2022-09-14T21:01:01.090Z,17.10
2022-09-14T21:04:10.163Z,24.83
2022-09-14T21:07:13.840Z,21.92
2022-09-14T21:10:16.917Z,26.42
2022-09-14T21:13:20.597Z,19.63
2022-09-14T21:16:25.712Z,18.03
2022-09-14T21:19:29.406Z,17.17
2022-09-14T21:22:32.650Z,14.82
2022-09-14T21:25:35.673Z,15.15
2022-09-14T21:28:40.892Z,11.15
2022-09-14T21:31:45.291Z,12.13
2022-09-14T21:34:49.135Z,15.47
2022-09-14T21:37:52.859Z,12.30
2022-09-14T21:40:57.144Z,13.18
2022-09-14T21:44:00.868Z,12.05
2022-09-14T21:47:05.735Z,8.77
2022-09-14T21:50:09.228Z,12.00
2022-09-14T21:53:12.488Z,9.18
2022-09-14T21:56:16.877Z,6.18
2022-09-14T21:59:22.216Z,7.13
2022-09-14T22:02:25.311Z,5.97
2022-09-14T22:05:28.842Z,6.70
2022-09-14T22:08:34.007Z,6.82
2022-09-14T22:11:39.750Z,7.18
2022-09-14T22:14:43.061Z,6.82
2022-09-14T22:17:47.627Z,5.60
2022-09-14T22:21:01.140Z,8.97
2022-09-14T22:24:08.204Z,10.38
2022-09-14T22:27:11.807Z,6.70
2022-09-14T22:30:15.279Z,6.22
2022-09-14T22:33:19.564Z,8.97
2022-09-14T22:36:24.003Z,6.97
2022-09-14T22:39:27.612Z,25.38
2022-09-14T22:42:32.052Z,10.65
2022-09-14T22:45:35.681Z,9.18
2022-09-14T22:48:39.464Z,6.70
2022-09-14T22:51:42.332Z,3.47
2022-09-14T22:54:45.909Z,3.75
2022-09-14T22:57:48.880Z,4.53
2022-09-14T23:00:52.863Z,3.40
2022-09-14T23:04:01.878Z,3.63
2022-09-14T23:07:05.009Z,7.57
2022-09-14T23:10:09.406Z,3.15
2022-09-14T23:13:13.080Z,3.13
2022-09-14T23:16:19.333Z,3.72
2022-09-14T23:19:22.589Z,14.03
2022-09-14T23:22:26.423Z,3.43
2022-09-14T23:25:29.428Z,3.50
2022-09-14T23:28:34.356Z,3.42
2022-09-14T23:31:38.098Z,5.13
2022-09-14T23:34:41.066Z,3.97
2022-09-14T23:37:44.251Z,5.50
2022-09-14T23:40:50.196Z,4.68
2022-09-14T23:43:54.529Z,4.70
2022-09-14T23:46:57.825Z,4.20
2022-09-14T23:50:00.826Z,5.00
2022-09-14T23:53:03.891Z,5.30
2022-09-14T23:56:07.538Z,5.45
2022-09-14T23:59:13.875Z,4.97
